createdAt,value
2022-09-21T00:01:37.069Z,15.80
2022-09-21T00:04:06.076Z,15.80
2022-09-21T00:06:35.834Z,15.80
2022-09-21T00:09:08.254Z,15.80
2022-09-21T00:11:38.020Z,15.80
2022-09-21T00:14:10.572Z,15.80
2022-09-21T00:16:39.847Z,15.70
2022-09-21T00:19:08.222Z,15.70
2022-09-21T00:21:39.346Z,15.60
2022-09-21T00:24:09.782Z,15.60
2022-09-21T00:26:37.963Z,15.60
2022-09-21T00:29:06.982Z,15.60
2022-09-21T00:31:35.370Z,15.50
2022-09-21T00:34:07.796Z,15.50
2022-09-21T00:36:36.465Z,15.50
2022-09-21T00:39:05.173Z,15.50
2022-09-21T00:41:37.102Z,15.50
2022-09-21T00:44:30.380Z,15.40
2022-09-21T00:47:02.644Z,15.30
2022-09-21T00:49:31.752Z,15.30
2022-09-21T00:52:02.113Z,15.30
2022-09-21T00:54:33.901Z,15.20
2022-09-21T00:57:03.730Z,15.20
2022-09-21T00:59:35.378Z,15.20
2022-09-21T01:02:04.349Z,15.20
2022-09-21T01:04:33.620Z,15.20
2022-09-21T01:07:05.659Z,15.20
2022-09-21T01:09:35.361Z,15.20
2022-09-21T01:12:18.899Z,15.10
2022-09-21T01:15:03.907Z,15.10
2022-09-21T01:17:40.873Z,15.10
2022-09-21T01:20:44.740Z,15.10
2022-09-21T01:23:32.899Z,15.00
2022-09-21T01:26:11.530Z,14.90
2022-09-21T01:29:02.735Z,14.90
2022-09-21T01:31:37.590Z,14.80
2022-09-21T01:34:11.940Z,14.90
2022-09-21T01:36:44.685Z,14.90
2022-09-21T01:39:15.726Z,14.80
2022-09-21T01:41:46.915Z,14.80
2022-09-21T01:44:21.012Z,14.80
2022-09-21T01:46:50.244Z,14.80
2022-09-21T01:49:22.639Z,14.70
2022-09-21T01:51:57.403Z,14.70
2022-09-21T01:54:29.739Z,14.60
2022-09-21T01:57:06.108Z,14.60
2022-09-21T01:59:43.931Z,14.60
2022-09-21T02:02:16.831Z,14.60
2022-09-21T02:04:46.128Z,14.50
2022-09-21T02:07:14.472Z,14.50
2022-09-21T02:09:43.349Z,14.50
2022-09-21T02:12:14.626Z,14.40
2022-09-21T02:14:47.057Z,14.50
2022-09-21T02:17:29.069Z,14.40
2022-09-21T02:20:04.440Z,14.40
2022-09-21T02:22:38.054Z,14.40
2022-09-21T02:25:13.024Z,14.30
2022-09-21T02:27:51.645Z,14.30
2022-09-21T02:30:24.888Z,14.30
2022-09-21T02:33:00.488Z,14.30
2022-09-21T02:35:38.616Z,14.30
2022-09-21T02:38:12.384Z,14.20
2022-09-21T02:40:45.849Z,14.10
2022-09-21T02:43:22.674Z,14.10
2022-09-21T02:45:57.963Z,14.10
2022-09-21T02:48:34.663Z,14.10
2022-09-21T02:51:08.239Z,14.10
2022-09-21T02:53:38.971Z,14.00
2022-09-21T02:56:11.607Z,14.00
2022-09-21T02:58:44.430Z,14.00
2022-09-21T03:01:19.299Z,14.00
2022-09-21T03:03:47.539Z,13.90
2022-09-21T03:06:15.878Z,13.90
2022-09-21T03:08:44.091Z,13.90
2022-09-21T03:11:12.522Z,13.90
2022-09-21T03:13:42.057Z,13.80
2022-09-21T03:16:10.307Z,13.80
2022-09-21T03:18:40.392Z,13.50
2022-09-21T03:21:08.725Z,13.50
2022-09-21T03:23:36.995Z,13.00
2022-09-21T03:26:05.291Z,13.20
2022-09-21T03:28:33.511Z,13.50
2022-09-21T03:31:04.190Z,13.60
2022-09-21T03:33:32.595Z,13.70
2022-09-21T03:36:02.309Z,13.60
2022-09-21T03:38:30.495Z,13.50
2022-09-21T03:41:01.078Z,13.50
2022-09-21T03:43:29.229Z,13.50
2022-09-21T03:45:58.027Z,13.60
2022-09-21T03:48:26.666Z,13.60
2022-09-21T03:50:54.861Z,13.60
2022-09-21T03:53:26.623Z,13.60
2022-09-21T03:55:54.844Z,13.60
2022-09-21T03:58:23.043Z,13.50
2022-09-21T04:00:51.220Z,13.50
2022-09-21T04:03:19.391Z,13.50
2022-09-21T04:05:47.578Z,13.30
2022-09-21T04:08:17.900Z,13.30
2022-09-21T04:10:49.821Z,13.30
2022-09-21T04:13:18.052Z,13.30
2022-09-21T04:15:46.222Z,13.30
2022-09-21T04:18:14.557Z,13.30
2022-09-21T04:20:42.696Z,13.20
2022-09-21T04:23:10.944Z,13.20
2022-09-21T04:25:39.115Z,13.20
2022-09-21T04:28:08.793Z,13.20
2022-09-21T04:30:40.317Z,13.20
2022-09-21T04:33:08.659Z,13.10
2022-09-21T04:35:37.450Z,13.20
2022-09-21T04:38:05.614Z,13.20
2022-09-21T04:40:33.953Z,13.20
2022-09-21T04:43:02.224Z,13.10
2022-09-21T04:45:32.395Z,13.10
2022-09-21T04:48:00.595Z,13.00
2022-09-21T04:50:28.663Z,12.80
2022-09-21T04:53:19.147Z,12.70
2022-09-21T04:55:47.398Z,12.70
2022-09-21T04:58:15.583Z,12.70
2022-09-21T05:00:45.196Z,12.60
2022-09-21T05:03:13.406Z,12.60
2022-09-21T05:05:48.177Z,12.60
2022-09-21T05:08:16.391Z,12.60
2022-09-21T05:10:43.978Z,12.60
2022-09-21T05:13:14.709Z,12.60
2022-09-21T05:15:46.373Z,12.60
2022-09-21T05:18:14.608Z,12.70
2022-09-21T05:20:42.832Z,12.70
2022-09-21T05:23:16.169Z,12.80
2022-09-21T05:25:47.875Z,12.90
2022-09-21T05:28:16.850Z,13.10
2022-09-21T05:31:13.786Z,13.50
2022-09-21T05:33:43.788Z,13.90
2022-09-21T05:36:28.394Z,13.40
2022-09-21T05:38:57.479Z,14.00
2022-09-21T05:41:26.349Z,14.60
2022-09-21T05:43:55.097Z,15.00
2022-09-21T05:46:34.917Z,15.30
2022-09-21T05:49:07.189Z,15.50
2022-09-21T05:51:44.340Z,15.80
2022-09-21T05:54:17.641Z,16.10
2022-09-21T05:56:54.005Z,16.30
2022-09-21T05:59:40.503Z,16.60
2022-09-21T06:02:19.829Z,17.00
2022-09-21T06:04:49.607Z,17.30
2022-09-21T06:07:17.813Z,17.40
2022-09-21T06:09:46.033Z,17.50
2022-09-21T06:12:14.335Z,17.70
2022-09-21T06:14:43.098Z,17.80
2022-09-21T06:17:14.904Z,18.00
2022-09-21T06:19:43.159Z,18.10
2022-09-21T06:22:13.635Z,18.30
2022-09-21T06:24:41.902Z,18.40
2022-09-21T06:27:10.045Z,17.80
2022-09-21T06:29:38.268Z,18.40
2022-09-21T06:32:06.922Z,18.90
2022-09-21T06:34:37.975Z,19.30
2022-09-21T06:37:06.330Z,19.70
2022-09-21T06:39:34.584Z,19.50
2022-09-21T06:42:04.409Z,20.00
2022-09-21T06:44:32.916Z,20.60
2022-09-21T06:47:01.329Z,20.90
2022-09-21T06:49:29.581Z,20.90
2022-09-21T06:52:01.659Z,21.10
2022-09-21T06:54:29.935Z,21.40
2022-09-21T06:57:00.160Z,21.00
2022-09-21T06:59:31.134Z,20.70
2022-09-21T07:01:59.833Z,20.70
2022-09-21T07:04:31.681Z,20.80
2022-09-21T07:07:03.898Z,21.00
2022-09-21T07:12:21.408Z,21.40
2022-09-21T07:14:50.656Z,22.20
2022-09-21T07:17:19.514Z,22.70
2022-09-21T07:19:47.710Z,23.10
2022-09-21T07:22:17.403Z,23.30
2022-09-21T07:24:45.661Z,23.40
2022-09-21T07:27:13.936Z,23.50
2022-09-21T07:29:42.903Z,23.00
2022-09-21T07:32:11.261Z,22.80
2022-09-21T07:34:39.565Z,22.80
2022-09-21T07:37:07.735Z,23.00
2022-09-21T07:39:38.966Z,23.30
2022-09-21T07:42:07.683Z,23.60
2022-09-21T07:44:35.876Z,23.80
2022-09-21T07:47:04.465Z,24.00
2022-09-21T07:49:35.171Z,23.90
2022-09-21T07:52:09.369Z,24.00
2022-09-21T07:54:40.814Z,24.10
2022-09-21T07:57:26.491Z,23.90
2022-09-21T07:59:56.640Z,24.00
2022-09-21T08:02:25.226Z,24.00
2022-09-21T08:04:53.684Z,24.30
2022-09-21T08:07:22.269Z,24.50
2022-09-21T08:09:54.360Z,24.60
2022-09-21T08:12:22.620Z,24.90
2022-09-21T08:14:51.131Z,25.20
2022-09-21T08:17:19.440Z,25.60
2022-09-21T08:19:47.682Z,25.90
2022-09-21T08:22:15.898Z,26.10
2022-09-21T08:24:44.398Z,26.10
2022-09-21T08:27:14.033Z,25.90
2022-09-21T08:29:43.168Z,25.30
2022-09-21T08:32:27.523Z,24.90
2022-09-21T08:35:00.396Z,24.50
2022-09-21T08:37:32.111Z,24.40
2022-09-21T08:40:00.513Z,24.10
2022-09-21T08:42:48.789Z,23.90
2022-09-21T08:45:21.025Z,23.80
2022-09-21T08:47:52.623Z,23.80
2022-09-21T08:50:30.704Z,24.10
2022-09-21T08:53:05.495Z,24.50
2022-09-21T08:55:36.602Z,24.80
2022-09-21T08:58:21.531Z,24.90
2022-09-21T09:00:53.621Z,24.90
2022-09-21T09:03:47.091Z,24.90
2022-09-21T09:06:26.740Z,25.10
2022-09-21T09:09:17.735Z,25.30
2022-09-21T09:11:56.779Z,25.40
2022-09-21T09:14:59.446Z,25.30
2022-09-21T09:17:39.125Z,25.20
2022-09-21T09:20:13.542Z,25.30
2022-09-21T09:22:45.662Z,25.60
2022-09-21T09:25:21.208Z,25.60
2022-09-21T09:27:55.552Z,25.70
2022-09-21T09:30:26.591Z,25.70
2022-09-21T09:33:01.329Z,25.70
2022-09-21T09:35:31.401Z,26.00
2022-09-21T09:38:12.044Z,26.20
2022-09-21T09:41:06.639Z,26.10
2022-09-21T09:43:46.620Z,26.00
2022-09-21T09:46:29.775Z,25.90
2022-09-21T09:49:14.477Z,25.80
2022-09-21T09:51:46.147Z,25.90
2022-09-21T09:54:19.076Z,25.90
2022-09-21T09:56:49.407Z,25.80
2022-09-21T09:59:30.631Z,25.80
2022-09-21T10:02:06.312Z,25.70
2022-09-21T10:04:35.945Z,25.50
2022-09-21T10:07:04.349Z,25.40
2022-09-21T10:09:34.594Z,25.20
2022-09-21T10:12:15.874Z,25.20
2022-09-21T10:14:50.613Z,25.20
2022-09-21T10:17:21.283Z,25.30
2022-09-21T10:20:00.994Z,25.40
2022-09-21T10:22:30.438Z,25.60
2022-09-21T10:25:01.756Z,25.90
2022-09-21T10:27:32.149Z,25.90
2022-09-21T10:30:00.523Z,26.00
2022-09-21T10:32:31.024Z,26.00
2022-09-21T10:35:18.137Z,25.90
2022-09-21T10:37:49.446Z,26.10
2022-09-21T10:40:26.283Z,26.40
2022-09-21T10:42:58.815Z,26.40
2022-09-21T10:45:29.147Z,26.30
2022-09-21T10:48:07.975Z,26.30
2022-09-21T10:50:40.200Z,26.60
2022-09-21T10:53:21.079Z,26.80
2022-09-21T10:56:15.006Z,26.70
2022-09-21T10:59:14.812Z,26.80
2022-09-21T11:01:46.818Z,27.10
2022-09-21T11:04:21.629Z,27.20
2022-09-21T11:06:53.543Z,27.20
2022-09-21T11:09:27.655Z,27.40
2022-09-21T11:12:00.789Z,27.70
2022-09-21T11:14:44.855Z,27.60
2022-09-21T11:17:19.713Z,27.50
2022-09-21T11:20:05.517Z,27.20
2022-09-21T11:22:41.210Z,27.10
2022-09-21T11:25:26.853Z,27.10
2022-09-21T11:28:02.349Z,27.10
2022-09-21T11:30:43.560Z,27.30
2022-09-21T11:33:23.940Z,27.30
2022-09-21T11:36:03.094Z,27.40
2022-09-21T11:38:48.797Z,27.50
2022-09-21T11:41:39.932Z,27.70
2022-09-21T11:44:21.377Z,27.80
2022-09-21T11:46:57.017Z,27.70
2022-09-21T11:49:48.876Z,27.50
2022-09-21T11:52:35.073Z,27.30
2022-09-21T11:55:23.629Z,27.40
2022-09-21T11:58:00.153Z,27.70
2022-09-21T12:00:33.664Z,28.00
2022-09-21T12:03:39.244Z,27.90
2022-09-21T12:06:17.535Z,27.60
2022-09-21T12:34:43.124Z,23.50
2022-09-21T12:37:15.840Z,24.90
2022-09-21T12:39:48.937Z,25.20
2022-09-21T12:42:35.068Z,25.20
2022-09-21T12:45:09.056Z,25.20
2022-09-21T12:47:48.224Z,25.40
2022-09-21T12:50:24.093Z,25.40
2022-09-21T12:52:53.655Z,25.20
2022-09-21T12:55:45.580Z,25.10
2022-09-21T12:58:29.551Z,25.40
2022-09-21T13:01:06.321Z,25.70
2022-09-21T13:03:41.460Z,25.60
2022-09-21T13:06:48.936Z,25.40
2022-09-21T13:09:20.771Z,25.30
2022-09-21T13:11:56.894Z,25.40
2022-09-21T13:14:28.049Z,25.30
2022-09-21T13:16:58.676Z,25.20
2022-09-21T13:19:29.152Z,24.90
2022-09-21T13:22:21.447Z,24.80
2022-09-21T13:25:03.336Z,24.70
2022-09-21T13:28:09.311Z,24.70
2022-09-21T13:30:40.614Z,24.70
2022-09-21T13:33:32.444Z,24.70
2022-09-21T13:36:35.410Z,24.50
2022-09-21T13:39:17.282Z,24.40
2022-09-21T13:42:02.306Z,24.10
2022-09-21T13:44:42.840Z,23.90
2022-09-21T13:47:14.303Z,23.70
2022-09-21T13:49:54.826Z,23.50
2022-09-21T13:52:40.293Z,23.30
2022-09-21T13:55:24.601Z,23.30
2022-09-21T13:57:56.649Z,23.40
2022-09-21T14:00:35.563Z,23.20
2022-09-21T14:03:08.580Z,23.30
2022-09-21T14:05:42.253Z,23.20
2022-09-21T14:08:23.936Z,23.20
2022-09-21T14:10:56.636Z,23.30
2022-09-21T14:13:32.748Z,23.50
2022-09-21T14:16:44.664Z,23.60
2022-09-21T14:19:45.878Z,23.60
2022-09-21T14:22:42.083Z,23.30
2022-09-21T14:25:49.149Z,23.30
2022-09-21T14:28:18.504Z,23.20
2022-09-21T14:30:54.593Z,23.20
2022-09-21T14:33:30.438Z,23.30
2022-09-21T14:36:01.757Z,24.10
2022-09-21T14:38:32.714Z,24.60
2022-09-21T14:41:07.506Z,24.00
2022-09-21T14:43:39.745Z,23.50
2022-09-21T14:46:23.143Z,23.40
2022-09-21T14:49:06.859Z,23.30
2022-09-21T14:51:43.598Z,23.20
2022-09-21T14:54:33.788Z,23.10
2022-09-21T14:57:20.383Z,23.00
2022-09-21T15:00:05.133Z,22.90
2022-09-21T15:02:35.853Z,22.80
2022-09-21T15:05:33.711Z,22.70
2022-09-21T15:08:32.648Z,22.70
2022-09-21T15:11:11.367Z,22.70
2022-09-21T15:14:10.351Z,22.60
2022-09-21T15:16:43.553Z,22.60
2022-09-21T15:19:17.632Z,22.60
2022-09-21T15:21:48.025Z,22.70
2022-09-21T15:24:26.803Z,22.80
2022-09-21T15:27:03.946Z,22.80
2022-09-21T15:29:34.926Z,22.80
2022-09-21T15:32:03.631Z,22.80
2022-09-21T15:34:32.187Z,22.70
2022-09-21T15:37:17.038Z,22.70
2022-09-21T15:39:45.441Z,22.60
2022-09-21T15:42:22.773Z,22.40
2022-09-21T15:45:06.535Z,22.40
2022-09-21T15:47:35.354Z,22.40
2022-09-21T15:50:04.040Z,22.50
2022-09-21T15:52:38.956Z,22.50
2022-09-21T15:55:18.001Z,22.50
2022-09-21T15:57:46.382Z,22.50
2022-09-21T16:00:25.551Z,22.50
2022-09-21T16:03:06.838Z,22.40
2022-09-21T16:05:46.468Z,22.30
2022-09-21T16:08:33.628Z,22.30
2022-09-21T16:11:18.981Z,22.30
2022-09-21T16:14:06.084Z,22.10
2022-09-21T16:17:06.925Z,22.00
2022-09-21T16:19:43.582Z,22.00
2022-09-21T16:22:12.691Z,22.70
2022-09-21T16:24:45.531Z,23.00
2022-09-21T16:27:17.346Z,23.10
2022-09-21T16:29:46.531Z,23.10
2022-09-21T16:32:28.873Z,23.00
2022-09-21T16:35:28.006Z,22.90
2022-09-21T16:37:58.804Z,22.70
2022-09-21T16:40:27.368Z,21.90
2022-09-21T16:42:55.798Z,21.50
2022-09-21T16:45:31.471Z,21.40
2022-09-21T16:48:02.705Z,21.40
2022-09-21T16:50:30.871Z,21.40
2022-09-21T16:52:59.247Z,21.40
2022-09-21T16:55:29.330Z,21.30
2022-09-21T16:58:00.427Z,21.30
2022-09-21T17:00:32.426Z,21.20
2022-09-21T17:03:02.390Z,21.20
2022-09-21T17:05:30.576Z,21.20
2022-09-21T17:08:00.299Z,21.20
2022-09-21T17:10:32.884Z,21.20
2022-09-21T17:13:01.173Z,21.00
2022-09-21T17:15:31.688Z,20.90
2022-09-21T17:18:03.558Z,20.80
2022-09-21T17:20:35.799Z,20.70
2022-09-21T17:23:06.331Z,20.50
2022-09-21T17:25:34.895Z,21.20
2022-09-21T17:28:03.405Z,21.60
2022-09-21T17:30:32.430Z,21.70
2022-09-21T17:33:01.199Z,21.70
2022-09-21T17:35:33.937Z,21.60
2022-09-21T17:38:02.366Z,21.50
2022-09-21T17:40:31.390Z,21.40
2022-09-21T17:43:12.299Z,21.30
2022-09-21T17:45:46.772Z,21.20
2022-09-21T17:48:22.043Z,21.20
2022-09-21T17:50:52.533Z,21.10
2022-09-21T17:53:37.075Z,21.00
2022-09-21T17:56:25.873Z,20.80
2022-09-21T17:58:58.031Z,19.80
2022-09-21T18:01:33.140Z,20.10
2022-09-21T18:04:01.464Z,20.20
2022-09-21T18:06:31.553Z,20.10
2022-09-21T18:09:00.260Z,19.90
2022-09-21T18:11:56.261Z,19.80
2022-09-21T18:14:35.509Z,19.80
2022-09-21T18:17:16.893Z,19.80
2022-09-21T18:19:55.420Z,19.80
2022-09-21T18:22:39.133Z,19.70
2022-09-21T18:25:14.855Z,19.40
2022-09-21T18:27:45.159Z,19.10
2022-09-21T18:30:14.160Z,19.10
2022-09-21T18:32:58.133Z,18.80
2022-09-21T18:35:41.006Z,18.60
2022-09-21T18:38:26.553Z,18.50
2022-09-21T18:41:13.261Z,18.50
2022-09-21T18:44:05.193Z,18.60
2022-09-21T18:46:42.652Z,18.70
2022-09-21T18:49:17.849Z,18.70
2022-09-21T18:51:52.899Z,18.50
2022-09-21T18:54:25.673Z,18.50
2022-09-21T18:56:55.477Z,18.40
2022-09-21T18:59:27.321Z,18.50
2022-09-21T19:01:58.869Z,18.60
2022-09-21T19:04:27.958Z,18.60
2022-09-21T19:07:03.059Z,18.40
2022-09-21T19:09:41.333Z,18.20
2022-09-21T19:12:18.681Z,18.20
2022-09-21T19:14:58.992Z,18.20
2022-09-21T19:17:40.787Z,18.20
2022-09-21T19:20:42.739Z,18.10
2022-09-21T19:23:28.158Z,17.90
2022-09-21T19:26:08.093Z,18.00
2022-09-21T19:29:03.266Z,17.90
2022-09-21T19:31:33.115Z,17.90
2022-09-21T19:34:11.365Z,17.80
2022-09-21T19:36:40.218Z,17.70
2022-09-21T19:39:09.627Z,17.90
2022-09-21T19:41:49.073Z,17.90
2022-09-21T19:44:39.925Z,17.80
2022-09-21T19:47:16.617Z,17.60
2022-09-21T19:49:51.075Z,17.70
2022-09-21T19:52:20.604Z,17.80
2022-09-21T19:55:07.041Z,18.00
2022-09-21T19:58:09.572Z,18.10
2022-09-21T20:00:40.316Z,18.00
2022-09-21T20:03:14.180Z,17.70
2022-09-21T20:05:50.708Z,17.50
2022-09-21T20:08:22.540Z,17.50
2022-09-21T20:10:57.187Z,17.60
2022-09-21T20:13:33.768Z,17.50
2022-09-21T20:16:18.951Z,17.40
2022-09-21T20:18:54.225Z,17.40
2022-09-21T20:21:28.240Z,17.60
2022-09-21T20:24:02.086Z,17.70
2022-09-21T20:26:31.078Z,17.80
2022-09-21T20:29:02.280Z,17.80
2022-09-21T20:31:30.987Z,17.80
2022-09-21T20:33:59.173Z,17.70
2022-09-21T20:36:29.687Z,17.40
2022-09-21T20:38:59.633Z,17.40
2022-09-21T20:41:30.302Z,17.50
2022-09-21T20:44:01.805Z,17.60
2022-09-21T20:46:30.029Z,17.60
2022-09-21T20:49:04.793Z,17.70
2022-09-21T20:51:33.946Z,17.80
2022-09-21T20:54:03.277Z,17.80
2022-09-21T20:56:33.612Z,17.80
2022-09-21T20:59:03.223Z,17.90
2022-09-21T21:01:34.231Z,18.00
2022-09-21T21:04:03.660Z,17.90
2022-09-21T21:06:32.697Z,17.90
2022-09-21T21:09:01.021Z,17.90
2022-09-21T21:11:29.136Z,17.90
2022-09-21T21:13:57.579Z,17.90
2022-09-21T21:16:27.357Z,17.80
2022-09-21T21:18:56.429Z,17.80
2022-09-21T21:21:25.379Z,17.80
2022-09-21T21:24:11.884Z,17.70
2022-09-21T21:27:00.748Z,17.50
2022-09-21T21:29:28.486Z,17.30
2022-09-21T21:32:01.056Z,17.40
2022-09-21T21:34:29.576Z,17.30
2022-09-21T21:37:00.121Z,17.00
2022-09-21T21:39:28.487Z,16.90
2022-09-21T21:41:56.635Z,16.80
2022-09-21T21:44:26.985Z,16.70
2022-09-21T21:47:06.171Z,16.60
2022-09-21T21:49:47.319Z,16.50
2022-09-21T21:52:15.939Z,16.50
2022-09-21T21:54:44.152Z,16.40
2022-09-21T21:57:13.745Z,16.40
2022-09-21T21:59:43.861Z,16.40
2022-09-21T22:02:12.194Z,16.60
2022-09-21T22:04:40.639Z,16.80
2022-09-21T22:07:10.198Z,16.80
2022-09-21T22:09:40.804Z,16.70
2022-09-21T22:12:10.191Z,16.70
2022-09-21T22:14:40.474Z,16.60
2022-09-21T22:17:08.627Z,16.70
2022-09-21T22:19:36.856Z,16.80
2022-09-21T22:22:05.137Z,16.90
2022-09-21T22:24:34.708Z,17.00
2022-09-21T22:27:05.636Z,16.90
2022-09-21T22:29:33.974Z,16.80
2022-09-21T22:32:04.594Z,16.70
2022-09-21T22:34:32.873Z,16.60
2022-09-21T22:37:01.026Z,16.50
2022-09-21T22:39:29.273Z,16.50
2022-09-21T22:41:59.417Z,16.40
2022-09-21T22:44:27.581Z,16.40
2022-09-21T22:46:57.940Z,16.40
2022-09-21T22:49:26.112Z,16.40
2022-09-21T22:51:54.318Z,16.40
2022-09-21T22:54:22.565Z,16.60
2022-09-21T22:56:50.733Z,16.60
2022-09-21T22:59:20.343Z,16.60
2022-09-21T23:01:48.508Z,16.40
2022-09-21T23:04:17.218Z,16.30
2022-09-21T23:06:46.541Z,16.20
2022-09-21T23:09:18.455Z,16.20
2022-09-21T23:11:48.564Z,16.20
2022-09-21T23:14:19.057Z,16.10
2022-09-21T23:16:47.450Z,16.10
2022-09-21T23:19:17.913Z,16.10
2022-09-21T23:21:49.603Z,16.10
2022-09-21T23:24:17.968Z,16.00
2022-09-21T23:26:46.930Z,16.20
2022-09-21T23:29:16.914Z,16.40
2022-09-21T23:31:48.955Z,16.40
2022-09-21T23:34:17.661Z,16.60
2022-09-21T23:36:48.208Z,16.70
2022-09-21T23:39:16.987Z,16.70
2022-09-21T23:41:45.478Z,16.80
2022-09-21T23:44:13.686Z,16.90
2022-09-21T23:46:42.765Z,16.70
2022-09-21T23:49:12.398Z,16.60
2022-09-21T23:51:40.688Z,16.40
2022-09-21T23:54:11.297Z,16.40
2022-09-21T23:56:42.211Z,16.50
2022-09-21T23:59:11.117Z,16.70
